createdAt,value
2024-02-04T00:00:20.902Z,107.18
2024-02-04T00:02:47.842Z,110.15
2024-02-04T00:05:14.838Z,115.20
2024-02-04T00:07:41.907Z,119.28
2024-02-04T00:10:09.066Z,109.85
2024-02-04T00:12:36.091Z,106.90
2024-02-04T00:15:05.551Z,118.18
2024-02-04T00:17:34.345Z,113.65
2024-02-04T00:20:02.295Z,119.25
2024-02-04T00:22:29.303Z,107.22
2024-02-04T00:24:57.415Z,122.53
2024-02-04T00:27:24.486Z,116.47
2024-02-04T00:29:51.701Z,108.78
2024-02-04T00:32:18.683Z,104.78
2024-02-04T00:34:45.856Z,102.70
2024-02-04T00:37:13.148Z,116.22
2024-02-04T00:39:40.085Z,113.53
2024-02-04T00:42:06.989Z,110.88
2024-02-04T00:44:33.944Z,99.47
2024-02-04T00:47:00.863Z,103.25
2024-02-04T00:49:28.243Z,96.88
2024-02-04T00:51:55.737Z,128.40
2024-02-04T00:54:22.696Z,105.65
2024-02-04T00:56:49.657Z,103.75
2024-02-04T00:59:16.665Z,109.10
2024-02-04T01:01:44.256Z,97.68
2024-02-04T01:04:11.338Z,102.70
2024-02-04T01:06:47.967Z,107.47
2024-02-04T01:09:23.728Z,105.07
2024-02-04T01:11:50.642Z,105.63
2024-02-04T01:14:17.491Z,102.50
2024-02-04T01:16:44.289Z,101.90
2024-02-04T01:19:11.222Z,96.93
2024-02-04T01:21:38.147Z,97.50
2024-02-04T01:24:05.412Z,101.28
2024-02-04T01:26:32.268Z,96.75
2024-02-04T01:28:59.201Z,90.38
2024-02-04T01:31:26.104Z,98.80
2024-02-04T01:33:53.188Z,96.35
2024-02-04T01:36:20.214Z,96.03
2024-02-04T01:38:47.204Z,84.68
2024-02-04T01:41:14.142Z,98.50
2024-02-04T01:43:41.070Z,91.45
2024-02-04T01:46:09.300Z,108.93
2024-02-04T01:48:37.436Z,108.50
2024-02-04T01:51:05.768Z,93.57
2024-02-04T01:53:35.238Z,98.28
2024-02-04T01:56:02.998Z,92.15
2024-02-04T01:58:30.154Z,104.68
2024-02-04T02:00:57.268Z,96.20
2024-02-04T02:03:25.738Z,105.13
2024-02-04T02:05:53.386Z,103.13
2024-02-04T02:08:20.457Z,98.70
2024-02-04T02:10:49.628Z,97.45
2024-02-04T02:13:26.078Z,88.47
2024-02-04T02:15:57.768Z,80.18
2024-02-04T02:18:44.070Z,111.80
2024-02-04T02:21:20.096Z,89.78
2024-02-04T02:24:15.279Z,103.15
2024-02-04T02:26:43.073Z,104.00
2024-02-04T02:29:10.120Z,113.25
2024-02-04T02:31:47.284Z,117.10
2024-02-04T02:34:30.292Z,114.43
2024-02-04T02:37:12.421Z,104.65
2024-02-04T02:39:50.946Z,108.78
2024-02-04T02:42:18.634Z,98.03
2024-02-04T02:44:47.334Z,92.60
2024-02-04T02:47:16.608Z,102.65
2024-02-04T02:49:43.677Z,92.05
2024-02-04T02:52:10.679Z,100.00
2024-02-04T02:54:37.595Z,96.88
2024-02-04T02:57:04.637Z,94.50
2024-02-04T02:59:31.968Z,95.07
2024-02-04T03:01:58.820Z,100.55
2024-02-04T03:04:25.857Z,97.72
2024-02-04T03:06:52.920Z,98.80
2024-02-04T03:09:19.751Z,105.97
2024-02-04T03:11:47.568Z,104.40
2024-02-04T03:14:17.772Z,97.50
2024-02-04T03:16:46.350Z,88.45
2024-02-04T03:19:13.707Z,85.18
2024-02-04T03:21:40.923Z,102.70
2024-02-04T03:24:08.599Z,97.30
2024-02-04T03:26:35.560Z,117.75
2024-02-04T03:29:05.726Z,100.45
2024-02-04T03:31:33.340Z,99.55
2024-02-04T03:34:00.648Z,112.40
2024-02-04T03:36:28.738Z,112.45
2024-02-04T03:38:55.775Z,128.20
2024-02-04T03:41:22.739Z,117.40
2024-02-04T03:43:50.125Z,108.65
2024-02-04T03:46:17.627Z,107.05
2024-02-04T03:48:44.982Z,101.95
2024-02-04T03:51:19.487Z,109.38
2024-02-04T03:53:48.620Z,110.30
2024-02-04T03:56:15.522Z,102.38
2024-02-04T03:58:42.495Z,116.25
2024-02-04T04:01:13.967Z,98.28
2024-02-04T04:03:44.645Z,93.83
2024-02-04T04:06:12.271Z,106.68
2024-02-04T04:08:39.522Z,97.88
2024-02-04T04:11:08.387Z,116.90
2024-02-04T04:13:36.383Z,102.95
2024-02-04T04:16:05.102Z,108.90
2024-02-04T04:18:32.510Z,115.88
2024-02-04T04:20:59.464Z,117.68
2024-02-04T04:23:26.454Z,112.95
2024-02-04T04:25:53.450Z,110.22
2024-02-04T04:28:20.418Z,115.70
2024-02-04T04:30:47.420Z,113.53
2024-02-04T04:33:14.576Z,119.82
2024-02-04T04:35:41.541Z,115.15
2024-02-04T04:38:08.500Z,125.53
2024-02-04T04:40:35.447Z,122.97
2024-02-04T04:43:02.462Z,117.57
2024-02-04T04:45:29.570Z,109.00
2024-02-04T04:47:56.567Z,112.43
2024-02-04T04:50:23.640Z,121.80
2024-02-04T04:52:50.905Z,109.53
2024-02-04T04:55:17.904Z,109.28
2024-02-04T04:57:44.834Z,115.05
2024-02-04T05:00:13.977Z,98.53
2024-02-04T05:02:45.066Z,103.40
2024-02-04T05:05:13.163Z,114.63
2024-02-04T05:07:40.847Z,113.43
2024-02-04T05:10:08.778Z,115.53
2024-02-04T05:12:37.202Z,125.70
2024-02-04T05:15:05.412Z,109.55
2024-02-04T05:17:33.013Z,108.63
2024-02-04T05:19:59.969Z,111.88
2024-02-04T05:22:26.922Z,117.55
2024-02-04T05:24:53.962Z,118.78
2024-02-04T05:27:20.857Z,117.45
2024-02-04T05:29:47.741Z,111.57
2024-02-04T05:32:14.716Z,145.13
2024-02-04T05:34:41.839Z,127.22
2024-02-04T05:37:08.920Z,115.65
2024-02-04T05:39:35.834Z,102.45
2024-02-04T05:42:02.765Z,117.18
2024-02-04T05:44:29.650Z,108.15
2024-02-04T05:46:56.885Z,110.85
2024-02-04T05:49:24.003Z,115.40
2024-02-04T05:51:51.047Z,116.72
2024-02-04T05:54:17.924Z,122.57
2024-02-04T05:56:45.167Z,114.55
2024-02-04T05:59:12.012Z,102.35
2024-02-04T06:01:38.913Z,112.72
2024-02-04T06:04:05.949Z,108.45
2024-02-04T06:06:33.203Z,112.28
2024-02-04T06:09:00.300Z,109.88
2024-02-04T06:11:27.334Z,112.60
2024-02-04T06:13:54.953Z,105.20
2024-02-04T06:16:21.759Z,130.10
2024-02-04T06:18:48.799Z,124.75
2024-02-04T06:21:15.748Z,115.18
2024-02-04T06:23:42.621Z,114.40
2024-02-04T06:26:09.471Z,108.28
2024-02-04T06:28:36.939Z,105.20
2024-02-04T06:31:04.112Z,108.07
2024-02-04T06:33:31.307Z,111.47
2024-02-04T06:35:58.293Z,115.65
2024-02-04T06:38:25.186Z,111.15
2024-02-04T06:40:52.233Z,110.60
2024-02-04T06:43:19.313Z,109.00
2024-02-04T06:45:46.232Z,107.82
2024-02-04T06:48:14.327Z,107.63
2024-02-04T06:50:41.396Z,117.55
2024-02-04T06:53:08.256Z,121.47
2024-02-04T06:55:35.089Z,131.25
2024-02-04T06:58:02.030Z,117.18
2024-02-04T07:00:29.067Z,132.45
2024-02-04T07:02:56.196Z,121.60
2024-02-04T07:05:23.304Z,105.78
2024-02-04T07:07:53.624Z,109.25
2024-02-04T07:10:20.753Z,113.05
2024-02-04T07:12:47.646Z,129.80
2024-02-04T07:15:14.546Z,115.72
2024-02-04T07:17:41.458Z,111.20
2024-02-04T07:20:08.699Z,113.05
2024-02-04T07:22:38.033Z,138.68
2024-02-04T07:25:05.924Z,121.93
2024-02-04T07:27:33.164Z,123.75
2024-02-04T07:30:00.225Z,126.10
2024-02-04T07:32:27.245Z,120.35
2024-02-04T07:34:54.243Z,114.93
2024-02-04T07:37:21.281Z,120.20
2024-02-04T07:39:48.480Z,133.05
2024-02-04T07:42:15.394Z,105.90
2024-02-04T07:44:42.298Z,122.97
2024-02-04T07:47:09.278Z,125.07
2024-02-04T07:49:36.363Z,122.05
2024-02-04T07:52:03.388Z,119.47
2024-02-04T07:54:30.383Z,111.45
2024-02-04T07:56:57.465Z,125.05
2024-02-04T07:59:24.355Z,129.88
2024-02-04T08:01:51.331Z,121.72
2024-02-04T08:04:18.251Z,120.75
2024-02-04T08:06:45.346Z,119.30
2024-02-04T08:09:12.918Z,131.85
2024-02-04T08:11:39.830Z,130.63
2024-02-04T08:14:06.787Z,138.60
2024-02-04T08:16:33.644Z,146.18
2024-02-04T08:19:00.604Z,131.15
2024-02-04T08:21:27.803Z,143.93
2024-02-04T08:23:55.206Z,145.77
2024-02-04T08:26:22.098Z,137.52
2024-02-04T08:28:49.005Z,134.98
2024-02-04T08:31:16.051Z,141.50
2024-02-04T08:33:43.337Z,139.20
2024-02-04T08:36:11.740Z,151.25
2024-02-04T08:38:38.783Z,153.32
2024-02-04T08:41:05.824Z,137.43
2024-02-04T08:43:32.823Z,136.25
2024-02-04T08:46:05.536Z,132.73
2024-02-04T08:48:38.291Z,136.95
2024-02-04T08:51:05.626Z,132.10
2024-02-04T08:53:32.503Z,134.55
2024-02-04T08:55:59.457Z,127.88
2024-02-04T08:58:26.475Z,131.95
2024-02-04T09:00:53.410Z,122.88
2024-02-04T09:03:20.372Z,134.13
2024-02-04T09:05:47.462Z,134.73
2024-02-04T09:08:14.520Z,126.13
2024-02-04T09:10:41.488Z,134.52
2024-02-04T09:13:08.592Z,115.25
2024-02-04T09:15:35.672Z,131.02
2024-02-04T09:18:02.806Z,138.82
2024-02-04T09:20:30.464Z,128.13
2024-02-04T09:22:57.683Z,127.32
2024-02-04T09:25:26.257Z,133.25
2024-02-04T09:27:53.316Z,131.02
2024-02-04T09:30:20.432Z,120.53
2024-02-04T09:32:48.337Z,139.57
2024-02-04T09:35:15.811Z,132.40
2024-02-04T09:37:43.641Z,131.60
2024-02-04T09:40:11.563Z,132.60
2024-02-04T09:42:38.750Z,134.40
2024-02-04T09:45:06.472Z,135.48
2024-02-04T09:47:36.311Z,132.05
2024-02-04T09:50:03.621Z,148.93
2024-02-04T09:52:32.687Z,143.23
2024-02-04T09:55:07.159Z,161.85
2024-02-04T09:57:36.239Z,145.43
2024-02-04T10:00:06.901Z,143.70
2024-02-04T10:02:39.154Z,157.73
2024-02-04T10:05:07.004Z,176.88
2024-02-04T10:07:34.353Z,166.27
2024-02-04T10:10:02.272Z,166.88
2024-02-04T10:12:29.390Z,168.55
2024-02-04T10:14:56.289Z,159.50
2024-02-04T10:17:23.614Z,158.38
2024-02-04T10:19:50.698Z,165.05
2024-02-04T10:22:18.627Z,165.98
2024-02-04T10:24:48.151Z,158.95
2024-02-04T10:27:26.053Z,171.98
2024-02-04T10:29:57.102Z,168.60
2024-02-04T10:32:25.795Z,162.38
2024-02-04T10:34:53.491Z,166.23
2024-02-04T10:37:20.662Z,165.13
2024-02-04T10:39:47.595Z,153.20
2024-02-04T10:42:16.261Z,172.13
2024-02-04T10:44:46.676Z,161.65
2024-02-04T10:47:18.674Z,170.75
2024-02-04T10:49:52.354Z,171.40
2024-02-04T10:52:19.720Z,144.05
2024-02-04T10:54:47.780Z,156.93
2024-02-04T10:57:20.098Z,159.93
2024-02-04T10:59:49.691Z,169.48
2024-02-04T11:02:17.393Z,145.73
2024-02-04T11:04:44.998Z,161.52
2024-02-04T11:07:13.509Z,156.50
2024-02-04T11:09:41.489Z,145.27
2024-02-04T11:12:13.916Z,161.70
2024-02-04T11:14:42.685Z,152.00
2024-02-04T11:17:27.318Z,153.50
2024-02-04T11:20:31.543Z,161.30
2024-02-04T11:23:37.079Z,216.02
2024-02-04T11:26:06.007Z,172.52
2024-02-04T11:28:34.201Z,171.25
2024-02-04T11:31:01.587Z,175.43
2024-02-04T11:33:30.271Z,168.90
2024-02-04T11:36:19.291Z,164.20
2024-02-04T11:38:50.101Z,172.55
2024-02-04T11:41:25.471Z,175.93
2024-02-04T11:44:01.263Z,171.38
2024-02-04T11:46:34.417Z,181.32
2024-02-04T11:49:02.008Z,177.50
2024-02-04T11:51:29.285Z,190.48
2024-02-04T11:53:57.279Z,189.80
2024-02-04T11:56:25.826Z,186.20
2024-02-04T11:58:53.573Z,183.43
2024-02-04T12:01:24.498Z,203.40
2024-02-04T12:03:53.188Z,195.02
2024-02-04T12:06:21.071Z,195.75
2024-02-04T12:08:48.566Z,185.80
2024-02-04T12:11:16.226Z,192.77
2024-02-04T12:13:44.384Z,206.27
2024-02-04T12:16:11.515Z,195.98
2024-02-04T12:18:51.942Z,176.18
2024-02-04T12:21:19.076Z,189.75
2024-02-04T12:23:46.047Z,183.95
2024-02-04T12:26:15.006Z,191.55
2024-02-04T12:28:42.039Z,194.25
2024-02-04T12:31:09.730Z,187.70
2024-02-04T12:33:39.176Z,195.10
2024-02-04T12:36:06.750Z,182.13
2024-02-04T12:38:34.382Z,171.32
2024-02-04T12:41:04.342Z,180.38
2024-02-04T12:43:31.226Z,175.73
2024-02-04T12:46:00.351Z,189.15
2024-02-04T12:48:29.638Z,179.48
2024-02-04T12:50:56.543Z,178.88
2024-02-04T12:53:23.386Z,203.18
2024-02-04T12:55:59.250Z,178.38
2024-02-04T12:58:26.399Z,186.73
2024-02-04T13:01:02.485Z,184.48
2024-02-04T13:03:29.654Z,185.27
2024-02-04T13:06:00.293Z,184.38
2024-02-04T13:08:30.421Z,176.43
2024-02-04T13:10:58.491Z,190.35
2024-02-04T13:13:28.352Z,189.85
2024-02-04T13:15:55.516Z,210.95
2024-02-04T13:18:22.492Z,187.40
2024-02-04T13:20:49.920Z,179.27
2024-02-04T13:23:16.949Z,201.63
2024-02-04T13:25:45.483Z,187.05
2024-02-04T13:28:58.369Z,190.68
2024-02-04T13:31:25.561Z,184.80
2024-02-04T13:33:52.526Z,202.55
2024-02-04T13:36:19.470Z,195.23
2024-02-04T13:38:48.475Z,185.38
2024-02-04T13:41:15.601Z,198.77
2024-02-04T13:43:44.616Z,193.65
2024-02-04T13:46:11.577Z,193.45
2024-02-04T13:48:38.524Z,204.50
2024-02-04T13:51:06.472Z,201.48
2024-02-04T13:53:35.328Z,200.27
2024-02-04T13:56:02.899Z,204.68
2024-02-04T13:58:29.752Z,203.57
2024-02-04T14:00:56.699Z,195.18
2024-02-04T14:03:23.572Z,188.15
2024-02-04T14:05:51.250Z,189.95
2024-02-04T14:08:18.352Z,194.10
2024-02-04T14:10:45.224Z,193.27
2024-02-04T14:13:12.910Z,191.52
2024-02-04T14:15:40.116Z,211.38
2024-02-04T14:18:07.148Z,193.10
2024-02-04T14:20:34.053Z,192.10
2024-02-04T14:23:00.913Z,187.40
2024-02-04T14:25:30.638Z,209.77
2024-02-04T14:27:58.178Z,194.00
2024-02-04T14:30:25.081Z,208.95
2024-02-04T14:32:52.031Z,205.18
2024-02-04T14:35:18.955Z,193.40
2024-02-04T14:37:46.008Z,204.98
2024-02-04T14:40:13.480Z,194.20
2024-02-04T14:42:42.857Z,196.13
2024-02-04T14:45:11.982Z,203.55
2024-02-04T14:47:39.717Z,202.60
2024-02-04T14:50:07.187Z,198.93
2024-02-04T14:52:34.090Z,208.05
2024-02-04T14:55:00.986Z,210.52
2024-02-04T14:57:28.231Z,197.15
2024-02-04T14:59:55.117Z,205.43
2024-02-04T15:02:22.173Z,202.23
2024-02-04T15:04:49.110Z,204.52
2024-02-04T15:07:16.163Z,202.50
2024-02-04T15:09:43.218Z,222.13
2024-02-04T15:12:10.826Z,203.95
2024-02-04T15:14:38.752Z,210.07
2024-02-04T15:17:06.048Z,216.75
2024-02-04T15:22:04.769Z,212.90
2024-02-04T15:24:31.990Z,214.48
2024-02-04T15:27:06.134Z,213.77
2024-02-04T15:29:37.381Z,218.20
2024-02-04T15:32:05.592Z,210.63
2024-02-04T15:34:33.821Z,217.80
2024-02-04T15:37:01.631Z,223.48
2024-02-04T15:39:28.773Z,217.65
2024-02-04T15:41:55.739Z,212.23
2024-02-04T15:44:25.724Z,218.50
2024-02-04T15:46:55.169Z,203.52
2024-02-04T15:49:23.609Z,217.18
2024-02-04T15:51:51.042Z,221.93
2024-02-04T15:54:18.457Z,224.77
2024-02-04T15:56:52.144Z,224.73
2024-02-04T15:59:22.386Z,237.55
2024-02-04T16:01:50.029Z,235.07
2024-02-04T16:04:18.833Z,244.90
2024-02-04T16:06:46.581Z,234.02
2024-02-04T16:09:14.528Z,224.98
2024-02-04T16:12:00.413Z,226.27
2024-02-04T16:14:29.270Z,213.73
2024-02-04T16:17:06.414Z,223.40
2024-02-04T16:19:33.786Z,213.40
2024-02-04T16:22:00.854Z,222.57
2024-02-04T16:24:27.913Z,212.27
2024-02-04T16:26:55.187Z,219.75
2024-02-04T16:29:28.548Z,230.95
2024-02-04T16:31:56.184Z,222.20
2024-02-04T16:34:23.349Z,215.90
2024-02-04T16:36:50.891Z,228.77
2024-02-04T16:39:18.079Z,233.32
2024-02-04T16:41:45.701Z,222.82
2024-02-04T16:44:14.965Z,220.75
2024-02-04T16:46:42.330Z,225.93
2024-02-04T16:49:13.615Z,214.15
2024-02-04T16:51:43.814Z,225.93
2024-02-04T16:54:10.993Z,220.50
2024-02-04T16:56:40.950Z,232.77
2024-02-04T16:59:09.752Z,228.15
2024-02-04T17:01:36.782Z,226.90
2024-02-04T17:04:05.548Z,221.02
2024-02-04T17:06:33.151Z,228.27
2024-02-04T17:09:02.922Z,222.63
2024-02-04T17:11:30.734Z,233.07
2024-02-04T17:13:58.174Z,226.88
2024-02-04T17:16:43.935Z,220.77
2024-02-04T17:19:15.817Z,229.05
2024-02-04T17:21:46.992Z,221.68
2024-02-04T17:24:26.565Z,219.70
2024-02-04T17:26:56.354Z,223.23
2024-02-04T17:29:23.956Z,223.38
2024-02-04T17:31:51.460Z,239.00
2024-02-04T17:34:18.896Z,214.73
2024-02-04T17:36:45.842Z,213.35
2024-02-04T17:39:13.195Z,218.70
2024-02-04T17:41:41.054Z,218.10
2024-02-04T17:44:08.005Z,232.52
2024-02-04T17:46:34.916Z,221.73
2024-02-04T17:49:03.509Z,225.25
2024-02-04T17:51:32.901Z,225.95
2024-02-04T17:54:00.817Z,217.73
2024-02-04T17:56:27.755Z,214.27
2024-02-04T17:58:54.557Z,220.90
2024-02-04T18:01:22.369Z,233.50
2024-02-04T18:03:50.820Z,235.52
2024-02-04T18:06:17.840Z,233.38
2024-02-04T18:08:44.742Z,227.20
2024-02-04T18:11:26.465Z,226.43
2024-02-04T18:13:54.825Z,216.48
2024-02-04T18:16:24.402Z,220.70
2024-02-04T18:18:51.900Z,223.85
2024-02-04T18:21:20.274Z,216.38
2024-02-04T18:23:47.667Z,221.10
2024-02-04T18:26:24.211Z,226.65
2024-02-04T18:28:52.105Z,208.07
2024-02-04T18:31:19.229Z,215.55
2024-02-04T18:33:48.560Z,220.32
2024-02-04T18:36:17.199Z,227.57
2024-02-04T18:38:45.129Z,215.63
2024-02-04T18:41:12.149Z,225.38
2024-02-04T18:43:39.173Z,228.90
2024-02-04T18:46:06.526Z,233.68
2024-02-04T18:48:33.674Z,217.30
2024-02-04T18:51:02.386Z,228.55
2024-02-04T18:53:29.381Z,218.57
2024-02-04T18:55:59.134Z,225.70
2024-02-04T18:58:28.338Z,221.45
2024-02-04T19:00:56.157Z,214.25
2024-02-04T19:03:23.142Z,205.93
2024-02-04T19:05:50.696Z,197.00
2024-02-04T19:08:17.621Z,203.20
2024-02-04T19:10:44.675Z,206.90
2024-02-04T19:13:11.608Z,208.75
2024-02-04T19:15:38.640Z,234.15
2024-02-04T19:18:06.093Z,221.43
2024-02-04T19:20:32.949Z,205.95
2024-02-04T19:23:00.201Z,202.80
2024-02-04T19:25:27.321Z,223.90
2024-02-04T19:27:56.887Z,217.00
2024-02-04T19:30:25.784Z,227.82
2024-02-04T19:32:56.217Z,229.27
2024-02-04T19:35:28.909Z,218.48
2024-02-04T19:37:56.222Z,246.77
2024-02-04T19:40:23.815Z,214.82
2024-02-04T19:42:54.891Z,231.07
2024-02-04T19:45:22.061Z,222.65
2024-02-04T19:47:50.334Z,222.55
2024-02-04T19:50:17.677Z,216.73
2024-02-04T19:52:45.544Z,203.50
2024-02-04T19:55:13.613Z,220.68
2024-02-04T19:57:40.843Z,212.15
2024-02-04T20:00:09.776Z,210.10
2024-02-04T20:02:39.512Z,222.20
2024-02-04T20:05:06.998Z,213.02
2024-02-04T20:07:34.407Z,216.10
2024-02-04T20:10:01.371Z,213.45
2024-02-04T20:12:28.625Z,218.27
2024-02-04T20:14:55.668Z,216.20
2024-02-04T20:17:22.593Z,209.32
2024-02-04T20:19:49.522Z,222.63
2024-02-04T20:22:16.443Z,203.90
2024-02-04T20:24:43.434Z,208.13
2024-02-04T20:27:10.555Z,200.70
2024-02-04T20:29:39.924Z,198.05
2024-02-04T20:32:07.385Z,216.70
2024-02-04T20:34:34.383Z,213.55
2024-02-04T20:37:01.284Z,217.10
2024-02-04T20:39:29.080Z,202.55
2024-02-04T20:41:59.110Z,207.30
2024-02-04T20:44:26.345Z,216.75
2024-02-04T20:46:53.633Z,220.63
2024-02-04T20:49:20.557Z,222.05
2024-02-04T20:51:47.518Z,219.45
2024-02-04T20:54:14.426Z,210.23
2024-02-04T20:56:44.079Z,229.73
2024-02-04T20:59:14.945Z,224.40
2024-02-04T21:01:41.919Z,212.23
2024-02-04T21:04:09.083Z,233.38
2024-02-04T21:06:37.197Z,204.80
2024-02-04T21:09:05.742Z,206.38
2024-02-04T21:11:32.601Z,216.35
2024-02-04T21:13:59.614Z,204.48
2024-02-04T21:16:29.659Z,201.30
2024-02-04T21:18:56.677Z,224.63
2024-02-04T21:21:23.750Z,212.80
2024-02-04T21:23:50.578Z,209.50
2024-02-04T21:26:17.568Z,189.43
2024-02-04T21:28:45.254Z,194.55
2024-02-04T21:31:12.930Z,174.15
2024-02-04T21:33:39.989Z,185.55
2024-02-04T21:36:11.240Z,194.70
2024-02-04T21:38:40.859Z,186.35
2024-02-04T21:41:07.828Z,183.20
2024-02-04T21:43:34.921Z,191.77
2024-02-04T21:46:01.993Z,203.07
2024-02-04T21:48:29.153Z,169.25
2024-02-04T21:50:56.058Z,171.57
2024-02-04T21:53:23.013Z,197.68
2024-02-04T21:55:49.908Z,200.68
2024-02-04T21:58:17.988Z,216.35
2024-02-04T22:00:45.185Z,227.52
2024-02-04T22:03:12.242Z,209.50
2024-02-04T22:05:39.636Z,202.15
2024-02-04T22:08:07.422Z,184.40
2024-02-04T22:10:34.638Z,187.68
2024-02-04T22:13:01.905Z,200.25
2024-02-04T22:15:28.879Z,185.40
2024-02-04T22:17:58.163Z,208.90
2024-02-04T22:20:27.162Z,202.50
2024-02-04T22:22:53.977Z,217.65
2024-02-04T22:25:27.817Z,193.88
2024-02-04T22:27:58.729Z,203.60
2024-02-04T22:30:26.114Z,207.30
2024-02-04T22:32:53.092Z,204.20
2024-02-04T22:35:20.408Z,184.98
2024-02-04T22:37:47.355Z,177.82
2024-02-04T22:40:14.889Z,202.15
2024-02-04T22:42:42.313Z,179.63
2024-02-04T22:45:09.813Z,203.90
2024-02-04T22:47:36.676Z,208.80
2024-02-04T22:50:04.072Z,220.43
2024-02-04T22:52:32.449Z,208.77
2024-02-04T22:54:59.618Z,203.43
2024-02-04T22:57:27.580Z,229.20
2024-02-04T22:59:54.563Z,224.02
2024-02-04T23:02:21.669Z,220.88
2024-02-04T23:04:48.598Z,221.77
2024-02-04T23:07:15.700Z,229.38
2024-02-04T23:09:42.693Z,233.50
2024-02-04T23:12:10.380Z,261.08
2024-02-04T23:14:37.265Z,188.75
2024-02-04T23:17:05.321Z,178.48
2024-02-04T23:19:32.450Z,204.15
2024-02-04T23:21:59.520Z,186.10
2024-02-04T23:24:26.488Z,181.93
2024-02-04T23:26:53.452Z,228.25
2024-02-04T23:29:21.024Z,271.20
2024-02-04T23:31:48.214Z,253.50
2024-02-04T23:34:17.472Z,237.30
2024-02-04T23:36:44.759Z,223.57
2024-02-04T23:39:11.969Z,207.80
2024-02-04T23:41:38.916Z,206.77
2024-02-04T23:44:06.498Z,211.20
2024-02-04T23:46:33.390Z,222.02
2024-02-04T23:49:00.855Z,218.40
2024-02-04T23:51:28.259Z,220.77
2024-02-04T23:53:55.134Z,224.77
2024-02-04T23:56:22.036Z,240.02
2024-02-04T23:58:49.010Z,222.18
